Time;durP1;ratioP1;P1;durP2;ratioP2;P2;SDS_P1;SDS_P2;PMS_P1;PMS_P2;Temp;Humidity;BMP_temperature;BMP_pressure;BME280_temperature;BME280_humidity;BME280_pressure;Samples;Min_cycle;Max_cycle;Signal;HPM_P1;HPM_P2
2024/01/12 00:01:53;;;;;;;26.15;11.50;;;;;;;;;;5119783;28;20027;-80
2024/01/12 00:04:19;;;;;;;31.80;13.75;;;;;;;;;;5119577;28;20091;-79
2024/01/12 00:06:46;;;;;;;34.72;12.95;;;;;;;;;;5124438;28;20084;-79
2024/01/12 00:09:12;;;;;;;29.67;12.77;;;;;;;;;;5106602;28;20035;-79
2024/01/12 00:11:38;;;;;;;28.40;11.65;;;;;;;;;;5127963;28;20024;-79
2024/01/12 00:14:04;;;;;;;24.85;9.93;;;;;;;;;;5118759;28;20035;-79
2024/01/12 00:16:31;;;;;;;29.75;11.68;;;;;;;;;;5096459;28;20024;-78
2024/01/12 00:18:57;;;;;;;28.13;11.55;;;;;;;;;;5105636;28;20024;-78
2024/01/12 00:21:23;;;;;;;23.55;10.40;;;;;;;;;;5118043;28;20071;-80
2024/01/12 00:23:49;;;;;;;25.02;10.50;;;;;;;;;;5101989;28;20138;-79
2024/01/12 00:26:15;;;;;;;23.42;10.00;;;;;;;;;;5128902;28;20026;-79
2024/01/12 00:28:41;;;;;;;22.17;9.48;;;;;;;;;;5103660;28;20016;-79
2024/01/12 00:31:07;;;;;;;21.65;9.05;;;;;;;;;;5097337;28;20020;-78
2024/01/12 00:33:33;;;;;;;22.75;8.88;;;;;;;;;;5106021;28;20053;-78
2024/01/12 00:36:00;;;;;;;23.05;9.65;;;;;;;;;;5126714;28;20311;-77
2024/01/12 00:38:26;;;;;;;20.55;8.95;;;;;;;;;;5093190;28;20502;-79
2024/01/12 00:40:52;;;;;;;22.25;8.93;;;;;;;;;;5104367;28;20072;-78
2024/01/12 00:43:18;;;;;;;25.15;9.75;;;;;;;;;;5099699;28;20020;-79
2024/01/12 00:45:44;;;;;;;21.75;9.02;;;;;;;;;;5090789;28;20458;-78
2024/01/12 00:48:11;;;;;;;21.90;9.48;;;;;;;;;;5120676;28;20028;-79
2024/01/12 00:50:37;;;;;;;25.10;10.38;;;;;;;;;;5099581;28;20107;-78
2024/01/12 00:53:03;;;;;;;21.63;9.85;;;;;;;;;;5096103;28;20467;-78
2024/01/12 00:55:29;;;;;;;25.85;10.48;;;;;;;;;;5100093;28;20024;-78
2024/01/12 00:57:55;;;;;;;22.75;10.18;;;;;;;;;;5105671;28;20028;-77
2024/01/12 01:00:22;;;;;;;25.77;10.27;;;;;;;;;;5114629;28;20024;-78
2024/01/12 01:02:48;;;;;;;21.70;9.65;;;;;;;;;;5094426;28;20113;-78
2024/01/12 01:05:14;;;;;;;19.08;9.13;;;;;;;;;;5119088;28;20407;-78
2024/01/12 01:07:40;;;;;;;22.38;8.73;;;;;;;;;;5117677;28;20032;-77
2024/01/12 01:10:06;;;;;;;21.90;10.00;;;;;;;;;;5103293;28;20031;-77
2024/01/12 01:12:32;;;;;;;27.33;10.45;;;;;;;;;;5095506;28;20498;-78
2024/01/12 01:14:58;;;;;;;27.80;11.05;;;;;;;;;;5109060;28;20023;-80
2024/01/12 01:17:25;;;;;;;27.05;11.63;;;;;;;;;;5120186;28;20035;-80
2024/01/12 01:19:51;;;;;;;25.17;11.70;;;;;;;;;;5117233;28;20068;-79
2024/01/12 01:22:18;;;;;;;29.83;12.63;;;;;;;;;;5099202;28;20032;-79
2024/01/12 01:24:44;;;;;;;26.60;11.32;;;;;;;;;;5097720;28;20106;-78
2024/01/12 01:27:10;;;;;;;22.58;9.73;;;;;;;;;;5102970;28;20413;-78
2024/01/12 01:29:36;;;;;;;28.05;11.93;;;;;;;;;;5120277;28;20027;-79
2024/01/12 01:32:02;;;;;;;29.80;12.30;;;;;;;;;;5098613;28;20031;-78
2024/01/12 01:34:28;;;;;;;22.55;10.60;;;;;;;;;;5100228;28;20026;-78
2024/01/12 01:36:58;;;;;;;26.38;10.05;;;;;;;;;;5111565;28;20043;-79
2024/01/12 01:39:24;;;;;;;22.63;10.38;;;;;;;;;;5116483;28;20026;-79
2024/01/12 01:41:50;;;;;;;26.98;11.50;;;;;;;;;;5116170;28;20031;-79
2024/01/12 01:44:17;;;;;;;28.60;11.00;;;;;;;;;;5101925;28;20046;-78
2024/01/12 01:46:43;;;;;;;28.10;10.43;;;;;;;;;;5137216;28;20023;-81
2024/01/12 01:49:09;;;;;;;20.55;9.43;;;;;;;;;;5126037;28;20121;-79
2024/01/12 01:51:35;;;;;;;24.35;10.60;;;;;;;;;;5117208;28;20028;-80
2024/01/12 01:54:02;;;;;;;16.45;8.30;;;;;;;;;;5119735;28;20020;-80
2024/01/12 01:56:28;;;;;;;20.88;9.32;;;;;;;;;;5138198;28;20007;-80
2024/01/12 01:58:54;;;;;;;19.02;9.38;;;;;;;;;;5137650;28;20016;-80
2024/01/12 02:01:21;;;;;;;26.75;10.63;;;;;;;;;;5136875;28;20028;-80
2024/01/12 02:03:47;;;;;;;23.27;9.90;;;;;;;;;;5138263;28;20039;-78
2024/01/12 02:06:14;;;;;;;36.08;13.30;;;;;;;;;;5138164;28;20026;-80
2024/01/12 02:08:40;;;;;;;32.88;14.52;;;;;;;;;;5130286;28;20032;-78
2024/01/12 02:11:06;;;;;;;32.17;13.48;;;;;;;;;;5117358;28;20037;-78
2024/01/12 02:13:32;;;;;;;30.20;13.10;;;;;;;;;;5117641;28;20040;-80
2024/01/12 02:15:58;;;;;;;31.88;13.52;;;;;;;;;;5117596;28;20018;-81
2024/01/12 02:18:24;;;;;;;39.58;15.10;;;;;;;;;;5117716;28;20020;-80
2024/01/12 02:20:55;;;;;;;35.92;14.80;;;;;;;;;;5117556;28;20020;-81
2024/01/12 02:23:21;;;;;;;26.92;11.98;;;;;;;;;;5137079;28;20047;-79
2024/01/12 02:25:48;;;;;;;30.42;13.00;;;;;;;;;;5138084;28;20020;-79
2024/01/12 02:28:14;;;;;;;31.63;12.55;;;;;;;;;;5137805;28;20027;-77
2024/01/12 02:30:41;;;;;;;24.45;11.15;;;;;;;;;;5121451;28;20011;-78
2024/01/12 02:33:07;;;;;;;25.42;11.45;;;;;;;;;;5120127;28;20024;-80
2024/01/12 02:35:33;;;;;;;25.95;11.45;;;;;;;;;;5120303;28;20073;-79
2024/01/12 02:38:00;;;;;;;34.85;13.02;;;;;;;;;;5122114;28;20016;-79
2024/01/12 02:40:26;;;;;;;31.50;13.20;;;;;;;;;;5116705;28;20203;-80
2024/01/12 02:42:52;;;;;;;36.42;13.88;;;;;;;;;;5122788;28;20019;-78
2024/01/12 02:45:19;;;;;;;34.15;13.75;;;;;;;;;;5137069;28;20015;-79
2024/01/12 02:47:45;;;;;;;30.63;10.95;;;;;;;;;;5131482;28;20015;-78
2024/01/12 02:50:12;;;;;;;28.35;11.30;;;;;;;;;;5127829;28;20095;-79
2024/01/12 02:52:38;;;;;;;22.80;10.52;;;;;;;;;;5119572;28;20075;-79
2024/01/12 02:55:05;;;;;;;22.67;9.98;;;;;;;;;;5122072;28;20016;-79
2024/01/12 02:57:32;;;;;;;25.38;10.65;;;;;;;;;;5124545;28;20058;-79
2024/01/12 02:59:58;;;;;;;26.67;11.15;;;;;;;;;;5126187;28;20051;-81
2024/01/12 03:02:24;;;;;;;22.17;9.73;;;;;;;;;;5125193;28;20451;-80
2024/01/12 03:04:51;;;;;;;22.98;9.52;;;;;;;;;;5126886;28;20043;-80
2024/01/12 03:07:17;;;;;;;24.83;9.68;;;;;;;;;;5107554;28;20020;-79
2024/01/12 03:09:43;;;;;;;23.77;9.57;;;;;;;;;;5109849;28;20021;-80
2024/01/12 03:12:09;;;;;;;29.48;11.55;;;;;;;;;;5103892;28;20475;-79
2024/01/12 03:14:35;;;;;;;29.98;10.88;;;;;;;;;;5114046;28;20016;-78
2024/01/12 03:17:01;;;;;;;26.70;10.45;;;;;;;;;;5117894;28;20080;-79
2024/01/12 03:19:27;;;;;;;27.48;10.65;;;;;;;;;;5106274;28;20020;-78
2024/01/12 03:21:54;;;;;;;43.97;15.77;;;;;;;;;;5101870;28;20043;-79
2024/01/12 03:24:20;;;;;;;40.92;15.43;;;;;;;;;;5119579;28;20038;-78
2024/01/12 03:26:46;;;;;;;42.25;16.23;;;;;;;;;;5109333;28;20032;-78
2024/01/12 03:29:13;;;;;;;40.10;14.05;;;;;;;;;;5100715;28;20028;-78
2024/01/12 03:31:39;;;;;;;44.70;17.08;;;;;;;;;;5111271;28;20039;-78
2024/01/12 03:34:05;;;;;;;42.47;16.20;;;;;;;;;;5109576;28;20050;-78
2024/01/12 03:36:31;;;;;;;41.28;15.90;;;;;;;;;;5100620;28;20024;-78
2024/01/12 03:38:57;;;;;;;44.95;15.98;;;;;;;;;;5119531;28;20023;-78
2024/01/12 03:41:23;;;;;;;31.63;13.15;;;;;;;;;;5108178;28;20008;-80
2024/01/12 03:43:49;;;;;;;31.80;13.27;;;;;;;;;;5135671;28;20026;-78
2024/01/12 03:46:15;;;;;;;28.67;11.48;;;;;;;;;;5101868;28;20027;-80
2024/01/12 03:48:43;;;;;;;31.15;11.93;;;;;;;;;;5110384;28;20577;-80
2024/01/12 03:51:09;;;;;;;36.17;12.65;;;;;;;;;;5112940;28;20024;-80
2024/01/12 03:53:35;;;;;;;34.63;12.18;;;;;;;;;;5099130;28;20351;-79
2024/01/12 03:56:02;;;;;;;39.45;13.70;;;;;;;;;;5103557;28;20470;-79
2024/01/12 03:58:28;;;;;;;40.03;14.27;;;;;;;;;;5091928;28;20054;-79
2024/01/12 04:00:54;;;;;;;32.47;12.52;;;;;;;;;;5118728;28;20016;-80
2024/01/12 04:03:20;;;;;;;36.67;12.60;;;;;;;;;;5109824;28;20032;-79
2024/01/12 04:05:47;;;;;;;31.88;12.32;;;;;;;;;;5101450;28;20032;-79
2024/01/12 04:08:13;;;;;;;31.45;10.38;;;;;;;;;;5082787;28;20032;-80
2024/01/12 04:10:39;;;;;;;30.95;11.57;;;;;;;;;;5089229;28;20024;-79
2024/01/12 04:13:05;;;;;;;29.42;10.32;;;;;;;;;;5099665;28;20039;-79
2024/01/12 04:15:31;;;;;;;27.13;11.23;;;;;;;;;;5106394;28;20069;-79
2024/01/12 04:17:57;;;;;;;29.60;11.27;;;;;;;;;;5102308;28;20084;-79
2024/01/12 04:20:23;;;;;;;25.85;10.88;;;;;;;;;;5105703;28;20019;-80
2024/01/12 04:22:49;;;;;;;25.35;10.65;;;;;;;;;;5110914;28;20050;-78
2024/01/12 04:25:16;;;;;;;25.20;9.90;;;;;;;;;;5113216;28;20031;-78
2024/01/12 04:27:42;;;;;;;26.45;10.15;;;;;;;;;;5104898;28;20538;-78
2024/01/12 04:30:09;;;;;;;21.08;9.52;;;;;;;;;;5104446;28;20032;-76
2024/01/12 04:32:35;;;;;;;27.50;10.30;;;;;;;;;;5110253;28;20020;-79
2024/01/12 04:35:01;;;;;;;27.35;11.48;;;;;;;;;;5104115;28;20048;-80
2024/01/12 04:37:27;;;;;;;29.80;11.27;;;;;;;;;;5114323;28;20034;-79
2024/01/12 04:39:53;;;;;;;37.83;12.57;;;;;;;;;;5102719;28;20027;-78
2024/01/12 04:42:20;;;;;;;30.42;12.20;;;;;;;;;;5104046;28;20088;-79
2024/01/12 04:44:46;;;;;;;28.10;11.60;;;;;;;;;;5128581;28;20028;-80
2024/01/12 04:47:12;;;;;;;32.67;12.35;;;;;;;;;;5110976;28;20172;-80
2024/01/12 04:49:38;;;;;;;36.55;13.68;;;;;;;;;;5097577;28;20024;-79
2024/01/12 04:52:05;;;;;;;31.48;12.20;;;;;;;;;;5107944;28;20035;-79
2024/01/12 04:54:31;;;;;;;32.78;13.05;;;;;;;;;;5085927;28;20107;-76
2024/01/12 04:56:57;;;;;;;31.52;13.07;;;;;;;;;;5096518;28;20051;-78
2024/01/12 04:59:24;;;;;;;31.45;12.82;;;;;;;;;;5096422;28;20024;-77
2024/01/12 05:01:50;;;;;;;30.70;11.82;;;;;;;;;;5107646;28;20023;-78
2024/01/12 05:04:16;;;;;;;34.53;12.65;;;;;;;;;;5106620;28;20028;-78
2024/01/12 05:06:43;;;;;;;37.92;16.52;;;;;;;;;;5104758;28;20023;-77
2024/01/12 05:09:09;;;;;;;36.63;14.63;;;;;;;;;;5098686;28;20024;-77
2024/01/12 05:11:35;;;;;;;38.00;14.27;;;;;;;;;;5097134;28;20028;-76
2024/01/12 05:14:01;;;;;;;38.80;14.65;;;;;;;;;;5115186;28;20117;-81
2024/01/12 05:16:27;;;;;;;36.45;14.55;;;;;;;;;;5094998;28;20031;-78
2024/01/12 05:18:53;;;;;;;30.73;12.35;;;;;;;;;;5101078;28;20485;-77
2024/01/12 05:21:19;;;;;;;27.10;11.38;;;;;;;;;;5100923;28;20019;-75
2024/01/12 05:23:46;;;;;;;29.02;12.13;;;;;;;;;;5113767;28;20106;-74
2024/01/12 05:26:15;;;;;;;29.42;11.35;;;;;;;;;;5094614;28;20028;-74
2024/01/12 05:28:41;;;;;;;27.17;10.52;;;;;;;;;;5086198;28;20160;-75
2024/01/12 05:31:10;;;;;;;25.25;10.68;;;;;;;;;;5105994;28;20024;-75
2024/01/12 05:33:36;;;;;;;26.95;10.27;;;;;;;;;;5095220;28;20035;-75
2024/01/12 05:36:02;;;;;;;26.98;11.35;;;;;;;;;;5092157;28;20036;-74
2024/01/12 05:38:28;;;;;;;22.38;10.48;;;;;;;;;;5104963;28;20077;-75
2024/01/12 05:40:55;;;;;;;25.88;10.25;;;;;;;;;;5090799;28;20028;-75
2024/01/12 05:43:21;;;;;;;23.75;10.68;;;;;;;;;;5120632;28;20027;-74
2024/01/12 05:45:48;;;;;;;25.88;10.32;;;;;;;;;;5100000;28;20031;-76
2024/01/12 05:48:14;;;;;;;22.00;8.90;;;;;;;;;;5079072;28;20066;-75
2024/01/12 05:50:40;;;;;;;24.25;10.02;;;;;;;;;;5094659;28;20080;-76
2024/01/12 05:53:07;;;;;;;36.95;13.98;;;;;;;;;;5081117;28;20058;-74
2024/01/12 05:55:33;;;;;;;30.73;13.82;;;;;;;;;;5097127;28;20080;-76
2024/01/12 05:57:59;;;;;;;33.38;13.80;;;;;;;;;;5100316;28;20025;-76
2024/01/12 06:00:25;;;;;;;33.30;13.10;;;;;;;;;;5109704;28;20034;-76
2024/01/12 06:02:51;;;;;;;26.33;12.40;;;;;;;;;;5095833;28;20028;-75
2024/01/12 06:05:18;;;;;;;27.45;11.10;;;;;;;;;;5084891;28;20028;-74
2024/01/12 06:07:44;;;;;;;28.30;12.50;;;;;;;;;;5103984;28;20546;-74
2024/01/12 06:10:12;;;;;;;24.75;10.82;;;;;;;;;;5107160;28;20073;-76
2024/01/12 06:12:38;;;;;;;25.48;10.55;;;;;;;;;;5110972;28;20024;-75
2024/01/12 06:15:05;;;;;;;22.50;10.43;;;;;;;;;;5108107;28;20473;-75
2024/01/12 06:17:31;;;;;;;21.50;9.43;;;;;;;;;;5088976;28;20020;-75
2024/01/12 06:19:57;;;;;;;17.30;8.73;;;;;;;;;;5099127;28;20019;-75
2024/01/12 06:22:23;;;;;;;19.27;8.05;;;;;;;;;;5084975;28;20047;-75
2024/01/12 06:24:49;;;;;;;20.65;9.35;;;;;;;;;;5084268;28;20028;-76
2024/01/12 06:27:16;;;;;;;20.45;9.30;;;;;;;;;;5103946;28;20028;-77
2024/01/12 06:29:42;;;;;;;18.85;9.07;;;;;;;;;;5101222;28;21156;-78
2024/01/12 06:32:08;;;;;;;18.63;8.68;;;;;;;;;;5114975;28;20465;-78
2024/01/12 06:34:34;;;;;;;19.35;8.43;;;;;;;;;;5103860;28;20016;-77
2024/01/12 06:37:00;;;;;;;28.30;11.80;;;;;;;;;;5100689;28;20024;-78
2024/01/12 06:39:27;;;;;;;36.67;14.35;;;;;;;;;;5116610;28;20474;-79
2024/01/12 06:41:53;;;;;;;31.92;13.32;;;;;;;;;;5119030;28;20015;-80
2024/01/12 06:44:19;;;;;;;29.95;12.95;;;;;;;;;;5116031;28;20030;-80
2024/01/12 06:46:45;;;;;;;31.33;13.80;;;;;;;;;;5106621;28;20031;-79
2024/01/12 06:49:11;;;;;;;29.23;12.05;;;;;;;;;;5101884;28;20039;-78
2024/01/12 06:51:38;;;;;;;30.38;12.25;;;;;;;;;;5092923;28;20090;-78
2024/01/12 06:54:04;;;;;;;29.88;12.38;;;;;;;;;;5113443;28;20080;-80
2024/01/12 06:56:30;;;;;;;32.20;13.18;;;;;;;;;;5093582;28;20024;-79
2024/01/12 06:58:57;;;;;;;41.13;16.02;;;;;;;;;;5113971;28;20024;-78
2024/01/12 07:01:23;;;;;;;36.22;15.85;;;;;;;;;;5085865;28;20020;-79
2024/01/12 07:03:51;;;;;;;39.30;16.17;;;;;;;;;;5118412;28;20462;-78
2024/01/12 07:06:17;;;;;;;40.67;16.42;;;;;;;;;;5115135;28;20039;-78
2024/01/12 07:08:44;;;;;;;40.10;16.85;;;;;;;;;;5118370;28;20024;-79
2024/01/12 07:11:10;;;;;;;40.03;16.10;;;;;;;;;;5115585;28;20416;-78
2024/01/12 07:13:36;;;;;;;41.55;16.90;;;;;;;;;;5115708;28;20030;-79
2024/01/12 07:16:03;;;;;;;45.78;18.85;;;;;;;;;;5119323;28;20019;-78
2024/01/12 07:18:29;;;;;;;47.97;19.48;;;;;;;;;;5122214;28;20123;-78
2024/01/12 07:20:57;;;;;;;43.25;16.85;;;;;;;;;;5114634;28;20114;-78
2024/01/12 07:23:26;;;;;;;42.78;17.50;;;;;;;;;;5119178;28;20036;-79
2024/01/12 07:25:52;;;;;;;36.88;15.85;;;;;;;;;;5116558;28;20034;-79
2024/01/12 07:28:18;;;;;;;35.78;15.02;;;;;;;;;;5112691;28;20008;-79
2024/01/12 07:30:45;;;;;;;36.45;13.60;;;;;;;;;;5108178;28;20359;-78
2024/01/12 07:33:11;;;;;;;29.50;13.63;;;;;;;;;;5101744;28;20077;-76
2024/01/12 07:35:37;;;;;;;28.77;12.63;;;;;;;;;;5119646;28;20015;-79
2024/01/12 07:38:03;;;;;;;30.23;12.10;;;;;;;;;;5122167;28;20039;-77
2024/01/12 07:40:29;;;;;;;25.65;11.85;;;;;;;;;;5117196;28;20031;-80
2024/01/12 07:42:56;;;;;;;30.13;13.02;;;;;;;;;;5119333;28;20031;-80
2024/01/12 07:45:22;;;;;;;28.80;13.52;;;;;;;;;;5105577;28;20046;-79
2024/01/12 07:47:48;;;;;;;28.38;12.73;;;;;;;;;;5090485;28;20031;-79
2024/01/12 07:50:14;;;;;;;31.33;12.63;;;;;;;;;;5093842;28;20039;-78
2024/01/12 07:52:40;;;;;;;28.58;12.55;;;;;;;;;;5118912;28;20081;-78
2024/01/12 07:55:07;;;;;;;33.03;13.35;;;;;;;;;;5122893;28;20032;-78
2024/01/12 07:57:33;;;;;;;29.67;13.55;;;;;;;;;;5124996;28;20027;-78
2024/01/12 07:59:59;;;;;;;23.80;11.32;;;;;;;;;;5110257;28;20478;-79
2024/01/12 08:02:25;;;;;;;23.80;11.27;;;;;;;;;;5116446;28;20023;-80
2024/01/12 08:04:51;;;;;;;29.85;12.15;;;;;;;;;;5119034;28;20020;-79
2024/01/12 08:07:17;;;;;;;26.52;12.55;;;;;;;;;;5121496;28;20088;-78
2024/01/12 08:09:43;;;;;;;25.58;10.77;;;;;;;;;;5111074;28;20057;-79
2024/01/12 08:12:16;;;;;;;25.65;12.68;;;;;;;;;;5126144;28;20493;-79
2024/01/12 08:30:39;;;;;;;45.92;18.35;;;;;;;;;;5175901;27;20185;-78
2024/01/12 08:33:06;;;;;;;49.97;20.05;;;;;;;;;;5164517;27;20019;-79
2024/01/12 08:35:34;;;;;;;46.22;19.98;;;;;;;;;;5159627;27;20037;-81
2024/01/12 08:38:03;;;;;;;53.90;21.48;;;;;;;;;;5170713;27;20057;-81
2024/01/12 08:40:30;;;;;;;53.40;22.58;;;;;;;;;;5149565;27;20144;-81
2024/01/12 08:42:57;;;;;;;60.88;25.98;;;;;;;;;;5159768;27;20023;-82
2024/01/12 08:45:23;;;;;;;56.63;23.48;;;;;;;;;;5169477;27;20027;-81
2024/01/12 08:47:49;;;;;;;58.45;25.42;;;;;;;;;;5159969;27;20055;-81
2024/01/12 08:50:15;;;;;;;52.42;22.20;;;;;;;;;;5158624;27;20035;-79
2024/01/12 08:52:42;;;;;;;46.35;21.23;;;;;;;;;;5147695;27;20019;-80
2024/01/12 08:55:09;;;;;;;43.78;18.40;;;;;;;;;;5172351;27;20042;-80
2024/01/12 08:57:36;;;;;;;47.10;20.67;;;;;;;;;;5166033;27;20027;-80
2024/01/12 09:00:03;;;;;;;51.53;22.98;;;;;;;;;;5177682;27;20117;-81
2024/01/12 09:02:30;;;;;;;55.95;24.30;;;;;;;;;;5186486;27;20056;-81
2024/01/12 09:04:56;;;;;;;51.50;22.80;;;;;;;;;;5179722;27;20032;-81
2024/01/12 09:07:22;;;;;;;53.22;22.80;;;;;;;;;;5158945;27;20027;-80
2024/01/12 09:09:48;;;;;;;49.85;21.35;;;;;;;;;;5153678;27;20023;-80
2024/01/12 09:12:14;;;;;;;45.17;20.25;;;;;;;;;;5147370;27;20408;-80
2024/01/12 09:14:40;;;;;;;48.78;20.90;;;;;;;;;;5149536;27;20035;-80
2024/01/12 09:17:06;;;;;;;47.50;20.13;;;;;;;;;;5156480;27;20015;-80
2024/01/12 09:19:32;;;;;;;45.17;19.92;;;;;;;;;;5155275;27;20036;-80
2024/01/12 09:21:58;;;;;;;51.42;19.60;;;;;;;;;;5154338;27;20031;-81
2024/01/12 09:24:24;;;;;;;47.90;21.65;;;;;;;;;;5149496;27;20035;-80
2024/01/12 09:26:51;;;;;;;57.20;23.52;;;;;;;;;;5158798;27;20019;-80
2024/01/12 09:29:17;;;;;;;45.08;21.25;;;;;;;;;;5152857;27;20027;-80
2024/01/12 09:31:43;;;;;;;38.80;18.50;;;;;;;;;;5152591;27;20058;-80
2024/01/12 09:34:11;;;;;;;44.00;20.45;;;;;;;;;;5165524;27;20072;-81
2024/01/12 09:36:37;;;;;;;41.85;18.20;;;;;;;;;;5164040;27;20046;-80
2024/01/12 09:39:03;;;;;;;47.35;20.73;;;;;;;;;;5159456;27;20027;-80
2024/01/12 09:41:38;;;;;;;44.92;20.27;;;;;;;;;;5141980;28;20012;-80
2024/01/12 09:44:08;;;;;;;45.85;21.60;;;;;;;;;;5148179;27;20048;-80
2024/01/12 09:46:37;;;;;;;34.35;16.83;;;;;;;;;;5160218;27;20027;-80
2024/01/12 09:49:26;;;;;;;40.97;18.27;;;;;;;;;;5143488;27;20047;-79
2024/01/12 09:51:52;;;;;;;47.88;21.63;;;;;;;;;;5152761;27;20049;-81
2024/01/12 09:54:19;;;;;;;53.33;25.02;;;;;;;;;;5154918;27;20114;-80
2024/01/12 09:56:45;;;;;;;53.10;24.60;;;;;;;;;;5140311;27;20085;-80
2024/01/12 09:59:11;;;;;;;47.75;21.92;;;;;;;;;;5157556;27;20049;-81
2024/01/12 10:01:39;;;;;;;41.65;20.05;;;;;;;;;;5153663;27;20038;-80
2024/01/12 10:04:06;;;;;;;43.92;21.13;;;;;;;;;;5151952;27;20023;-80
2024/01/12 10:06:32;;;;;;;46.13;20.17;;;;;;;;;;5136806;27;20096;-80
2024/01/12 10:08:58;;;;;;;39.55;19.02;;;;;;;;;;5142783;27;20023;-79
2024/01/12 10:11:25;;;;;;;40.47;18.65;;;;;;;;;;5139283;27;20023;-78
2024/01/12 10:13:51;;;;;;;48.05;21.40;;;;;;;;;;5137330;27;20100;-76
2024/01/12 10:16:17;;;;;;;43.42;19.15;;;;;;;;;;5131704;27;20019;-80
2024/01/12 10:18:43;;;;;;;44.97;19.23;;;;;;;;;;5132932;27;20095;-77
2024/01/12 10:21:10;;;;;;;38.42;18.40;;;;;;;;;;5123142;27;20057;-77
2024/01/12 10:23:36;;;;;;;41.83;19.27;;;;;;;;;;5123399;27;20023;-78
2024/01/12 10:26:05;;;;;;;45.42;20.60;;;;;;;;;;5135838;27;20027;-76
2024/01/12 10:28:32;;;;;;;45.83;20.13;;;;;;;;;;5134043;27;20112;-77
2024/01/12 10:30:58;;;;;;;42.72;20.63;;;;;;;;;;5128759;27;20390;-77
2024/01/12 10:33:24;;;;;;;62.42;25.30;;;;;;;;;;5133189;27;20151;-77
2024/01/12 10:35:56;;;;;;;51.58;22.65;;;;;;;;;;5140125;27;20548;-77
2024/01/12 10:38:23;;;;;;;61.20;27.00;;;;;;;;;;5117410;27;20443;-77
2024/01/12 10:40:50;;;;;;;54.78;24.08;;;;;;;;;;5121113;27;20046;-78
2024/01/12 10:43:17;;;;;;;53.88;25.05;;;;;;;;;;5119891;27;20016;-76
2024/01/12 10:45:45;;;;;;;49.00;21.30;;;;;;;;;;5128324;27;20031;-78
2024/01/12 10:48:11;;;;;;;62.33;27.70;;;;;;;;;;5128393;27;20080;-76
2024/01/12 10:50:42;;;;;;;60.05;25.55;;;;;;;;;;5118253;27;20048;-77
2024/01/12 10:53:14;;;;;;;58.88;25.65;;;;;;;;;;5119325;27;20073;-77
2024/01/12 10:55:40;;;;;;;;;;;;;;;;;;5124329;27;20439;-76
2024/01/12 10:58:07;;;;;;;59.55;26.80;;;;;;;;;;5120696;27;19903;-77
2024/01/12 11:00:33;;;;;;;64.30;26.08;;;;;;;;;;5121902;27;20054;-78
2024/01/12 11:03:03;;;;;;;54.90;23.58;;;;;;;;;;5123543;27;20012;-77
2024/01/12 11:05:31;;;;;;;63.40;27.38;;;;;;;;;;5136300;27;20062;-76
2024/01/12 11:07:59;;;;;;;68.72;30.30;;;;;;;;;;5160979;27;20034;-76
2024/01/12 11:10:25;;;;;;;58.80;25.92;;;;;;;;;;5128792;27;20024;-76
2024/01/12 11:12:52;;;;;;;52.80;23.05;;;;;;;;;;5134085;27;20423;-77
2024/01/12 11:15:19;;;;;;;62.95;28.20;;;;;;;;;;5121415;27;20170;-76
2024/01/12 11:17:45;;;;;;;50.80;23.65;;;;;;;;;;5130031;27;20342;-77
2024/01/12 11:20:12;;;;;;;48.33;22.20;;;;;;;;;;5124316;27;20042;-77
2024/01/12 11:22:39;;;;;;;50.90;22.60;;;;;;;;;;5125753;27;20027;-78
2024/01/12 11:25:09;;;;;;;45.58;20.73;;;;;;;;;;5138289;27;20027;-78
2024/01/12 11:27:35;;;;;;;48.63;21.55;;;;;;;;;;5131494;27;20404;-77
2024/01/12 11:30:03;;;;;;;47.00;20.27;;;;;;;;;;5141524;27;20035;-79
2024/01/12 11:32:29;;;;;;;56.92;24.67;;;;;;;;;;5133808;27;20085;-78
2024/01/12 11:35:16;;;;;;;51.67;22.73;;;;;;;;;;5125592;27;20385;-77
2024/01/12 11:37:43;;;;;;;61.10;25.85;;;;;;;;;;5129807;27;20027;-77
2024/01/12 11:40:10;;;;;;;71.68;31.27;;;;;;;;;;5125573;27;20018;-76
2024/01/12 11:42:40;;;;;;;68.15;29.33;;;;;;;;;;5130486;27;20072;-77
2024/01/12 11:45:09;;;;;;;67.72;30.15;;;;;;;;;;5132441;27;20027;-77
2024/01/12 11:47:36;;;;;;;58.83;27.15;;;;;;;;;;5117182;27;20410;-77
2024/01/12 11:50:03;;;;;;;71.47;31.10;;;;;;;;;;5125054;27;20081;-77
2024/01/12 11:52:30;;;;;;;65.75;28.05;;;;;;;;;;5116500;27;20028;-77
2024/01/12 11:54:57;;;;;;;64.72;29.20;;;;;;;;;;5122721;27;20020;-77
2024/01/12 11:57:25;;;;;;;64.78;29.73;;;;;;;;;;5133110;27;20019;-78
2024/01/12 11:59:51;;;;;;;69.50;28.85;;;;;;;;;;5145076;27;20614;-77
2024/01/12 12:02:17;;;;;;;67.18;29.40;;;;;;;;;;5128650;27;20028;-77
2024/01/12 12:04:43;;;;;;;56.65;26.25;;;;;;;;;;5136876;27;20031;-77
2024/01/12 12:07:09;;;;;;;58.17;25.77;;;;;;;;;;5119349;27;20035;-77
2024/01/12 12:09:36;;;;;;;56.20;25.48;;;;;;;;;;5124810;27;20115;-78
2024/01/12 12:12:02;;;;;;;57.70;25.95;;;;;;;;;;5115718;28;20035;-78
2024/01/12 12:14:29;;;;;;;59.05;27.17;;;;;;;;;;5121364;27;20028;-77
2024/01/12 12:16:55;;;;;;;63.67;28.85;;;;;;;;;;5127243;27;20030;-78
2024/01/12 12:19:21;;;;;;;64.22;27.30;;;;;;;;;;5130221;27;20050;-77
2024/01/12 12:21:47;;;;;;;59.03;26.98;;;;;;;;;;5120470;27;20500;-77
2024/01/12 12:24:14;;;;;;;59.22;26.92;;;;;;;;;;5126227;27;20084;-78
2024/01/12 12:26:41;;;;;;;65.07;28.00;;;;;;;;;;5127501;27;20084;-77
2024/01/12 12:29:08;;;;;;;66.75;29.20;;;;;;;;;;5120895;27;20122;-77
2024/01/12 12:31:39;;;;;;;66.10;29.77;;;;;;;;;;5130129;27;20028;-77
2024/01/12 12:34:05;;;;;;;52.47;23.38;;;;;;;;;;5148111;27;20011;-77
2024/01/12 12:36:31;;;;;;;58.33;25.65;;;;;;;;;;5145942;27;20044;-77
2024/01/12 12:38:57;;;;;;;61.33;25.90;;;;;;;;;;5147449;27;20016;-77
2024/01/12 12:41:23;;;;;;;58.63;24.05;;;;;;;;;;5147484;27;20090;-76
2024/01/12 12:43:51;;;;;;;58.42;24.98;;;;;;;;;;5142619;27;20061;-77
2024/01/12 12:46:17;;;;;;;58.63;25.63;;;;;;;;;;5143876;27;20016;-77
2024/01/12 12:48:45;;;;;;;65.82;28.55;;;;;;;;;;5141603;27;20038;-77
2024/01/12 12:51:11;;;;;;;60.22;28.83;;;;;;;;;;5124034;27;20106;-77
2024/01/12 12:53:37;;;;;;;63.75;28.92;;;;;;;;;;5119449;27;20244;-77
2024/01/12 12:56:04;;;;;;;68.82;29.10;;;;;;;;;;5125847;27;20049;-78
2024/01/12 12:58:31;;;;;;;56.17;26.42;;;;;;;;;;5120130;27;20031;-78
2024/01/12 13:00:58;;;;;;;72.32;31.50;;;;;;;;;;5127942;27;20399;-76
2024/01/12 13:03:24;;;;;;;75.40;32.58;;;;;;;;;;5134780;27;20054;-78
2024/01/12 13:05:50;;;;;;;66.40;29.10;;;;;;;;;;5122539;27;20612;-77
2024/01/12 13:08:16;;;;;;;74.25;34.03;;;;;;;;;;5125565;28;20482;-77
2024/01/12 13:10:43;;;;;;;79.72;33.78;;;;;;;;;;5123704;27;20079;-77
2024/01/12 13:13:09;;;;;;;79.82;35.13;;;;;;;;;;5131003;27;20016;-77
2024/01/12 13:15:35;;;;;;;75.28;33.00;;;;;;;;;;5144357;27;20573;-78
2024/01/12 13:18:01;;;;;;;70.03;32.40;;;;;;;;;;5145794;27;20034;-77
2024/01/12 13:20:29;;;;;;;70.72;30.45;;;;;;;;;;5136578;27;20456;-77
2024/01/12 13:22:55;;;;;;;66.97;31.02;;;;;;;;;;5124675;27;20383;-78
2024/01/12 13:25:21;;;;;;;85.28;36.28;;;;;;;;;;5128111;27;20084;-77
2024/01/12 13:27:48;;;;;;;82.38;34.35;;;;;;;;;;5127870;27;20031;-77
2024/01/12 13:30:14;;;;;;;73.57;30.45;;;;;;;;;;5124580;27;20032;-77
2024/01/12 13:32:40;;;;;;;64.93;29.95;;;;;;;;;;5128920;27;20050;-78
2024/01/12 13:35:07;;;;;;;83.55;35.33;;;;;;;;;;5125307;27;20024;-78
2024/01/12 13:37:33;;;;;;;73.00;32.75;;;;;;;;;;5129908;27;20086;-78
2024/01/12 13:39:59;;;;;;;71.03;30.85;;;;;;;;;;5129958;27;20094;-78
2024/01/12 13:42:26;;;;;;;68.03;29.88;;;;;;;;;;5125824;27;20019;-78
2024/01/12 13:44:52;;;;;;;79.25;32.28;;;;;;;;;;5135151;27;20031;-79
2024/01/12 13:47:19;;;;;;;75.43;32.47;;;;;;;;;;5125296;27;20156;-79
2024/01/12 13:49:45;;;;;;;85.68;35.75;;;;;;;;;;5127300;27;20486;-78
2024/01/12 13:52:12;;;;;;;77.38;33.35;;;;;;;;;;5134945;27;20232;-79
2024/01/12 13:54:38;;;;;;;76.70;32.03;;;;;;;;;;5120778;27;20107;-78
2024/01/12 13:57:04;;;;;;;67.53;29.45;;;;;;;;;;5131711;27;20405;-79
2024/01/12 13:59:30;;;;;;;61.45;27.50;;;;;;;;;;5132738;27;20043;-78
2024/01/12 14:01:56;;;;;;;61.30;26.77;;;;;;;;;;5146440;27;20022;-78
2024/01/12 14:04:22;;;;;;;54.10;24.48;;;;;;;;;;5152197;27;20025;-79
2024/01/12 14:06:49;;;;;;;60.33;25.70;;;;;;;;;;5150155;27;20481;-77
2024/01/12 14:09:15;;;;;;;55.17;25.45;;;;;;;;;;5148248;27;20051;-77
2024/01/12 14:11:42;;;;;;;63.28;26.63;;;;;;;;;;5143074;27;20534;-79
2024/01/12 14:14:08;;;;;;;51.25;22.20;;;;;;;;;;5126039;27;20023;-77
2024/01/12 14:16:34;;;;;;;59.63;26.15;;;;;;;;;;5140057;27;20031;-76
2024/01/12 14:19:00;;;;;;;62.25;26.90;;;;;;;;;;5126273;27;20047;-77
2024/01/12 14:21:26;;;;;;;70.80;30.05;;;;;;;;;;5133557;27;20023;-76
2024/01/12 14:23:52;;;;;;;68.13;28.52;;;;;;;;;;5126444;27;20027;-76
2024/01/12 14:26:18;;;;;;;64.45;27.15;;;;;;;;;;5129638;27;20033;-76
2024/01/12 14:28:46;;;;;;;57.67;24.55;;;;;;;;;;5128962;27;20504;-75
2024/01/12 14:31:12;;;;;;;60.50;25.70;;;;;;;;;;5131418;27;20077;-77